Sunday, October 21, 2018, 7:12 AM EDT
Back to Local

KFMH, Otis Air National Guard Base

Location: Mashpee, MA, United States Lat: 41.65
Local Time: 7:12 AM EDT (11:12 GMT) Lon: -70.517
Time Zone: US/Eastern Elev: 131 ft

Show me the last for .
Show Decoded

2018-10-21 07:00 METAR KFMH 211100Z 35010KT 7SM -DZ FEW025 OVC037 08/06 A2961 =
2018-10-21 05:55 METAR KFMH 210955Z 34010G18KT 10SM OVC040 08/05 A2959 =
2018-10-21 04:55 METAR KFMH 210855Z 34006KT 10SM BKN045 08/05 A2956 =
2018-10-21 00:45 METAR KFMH 210445Z 00000KT 10SM SKC 04/04 A2959 =
2018-10-20 23:45 METAR KFMH 210345Z 00000KT 10SM SKC 06/06 A2961 =
2018-10-20 22:45 METAR KFMH 210245Z 00000KT 10SM FEW080 07/07 A2961 =
2018-10-20 21:45 METAR KFMH 210145Z 00000KT 10SM BKN070 08/08 A2960 =
2018-10-20 19:55 METAR KFMH 202355Z AUTO 00000KT 9SM CLR 10/09 A2960 RMK AO2 =
2018-10-20 19:35 METAR KFMH 202335Z AUTO 00000KT 10SM FEW003 FEW085 11/10 A2960 RMK AO2 =
2018-10-20 19:15 METAR KFMH 202315Z AUTO 00000KT 10SM CLR 11/10 A2959 RMK AO2 =
2018-10-20 18:55 METAR KFMH 202255Z AUTO 21003KT 10SM CLR 11/10 A2959 RMK AO2 =
2018-10-20 18:35 METAR KFMH 202235Z AUTO 23003KT 10SM CLR 12/10 A2959 RMK AO2 =
2018-10-20 18:15 METAR KFMH 202215Z AUTO 23004KT 10SM CLR 12/10 A2958 RMK AO2 =
2018-10-20 17:55 METAR KFMH 202155Z AUTO 22005KT 10SM CLR 13/11 A2957 RMK AO2 =
2018-10-20 17:35 METAR KFMH 202135Z AUTO 24007KT 10SM CLR 15/11 A2957 RMK AO2 =
2018-10-20 17:15 METAR KFMH 202115Z AUTO 24007KT 10SM CLR 16/11 A2957 RMK AO2 =
2018-10-20 16:55 METAR KFMH 202055Z AUTO 23009KT 10SM CLR 16/11 A2957 RMK AO2 =
2018-10-20 16:35 METAR KFMH 202035Z AUTO 23009KT 10SM CLR 15/11 A2957 RMK AO2 =
2018-10-20 16:15 METAR KFMH 202015Z AUTO 24009KT 10SM CLR 15/11 A2958 RMK AO2 =
2018-10-20 15:55 METAR KFMH 201955Z AUTO 24010KT 10SM CLR 15/11 A2958 RMK AO2 =
2018-10-20 15:35 METAR KFMH 201935Z AUTO 24011KT 10SM CLR 16/11 A2958 RMK AO2 =
2018-10-20 15:15 METAR KFMH 201915Z AUTO 23010G17KT 10SM FEW037 16/11 A2959 RMK AO2 =
2018-10-20 14:55 METAR KFMH 201855Z AUTO 23016G21KT 10SM CLR 16/11 A2959 RMK AO2 =
2018-10-20 14:35 METAR KFMH 201835Z AUTO 24016G24KT 10SM FEW026 SCT034 16/12 A2960 RMK AO2 =
2018-10-20 14:15 METAR KFMH 201815Z AUTO 24015G24KT 10SM FEW018 BKN027 BKN032 16/12 A2960 RMK AO2
                 =
2018-10-20 13:55 METAR KFMH 201755Z AUTO 24020G25KT 10SM SCT018 SCT028 BKN032 16/12 A2961 RMK AO2
                 =
2018-10-20 13:35 METAR KFMH 201735Z AUTO 23017G24KT 10SM FEW017 17/12 A2962 RMK AO2 =
2018-10-20 13:15 METAR KFMH 201715Z AUTO 24019G24KT 10SM FEW018 SCT070 16/12 A2963 RMK AO2 =
2018-10-20 12:55 METAR KFMH 201655Z AUTO 23021G26KT 10SM BKN070 16/12 A2963 RMK AO2 =
2018-10-20 12:35 METAR KFMH 201635Z AUTO 24018KT 10SM FEW018 SCT070 16/12 A2965 RMK AO2 =
2018-10-20 12:15 METAR KFMH 201615Z AUTO 24018G25KT 10SM FEW018 FEW070 FEW100 17/12 A2965 RMK AO2
                 =
2018-10-20 11:55 METAR KFMH 201555Z AUTO 24018G27KT 10SM SCT018 SCT070 BKN095 17/12 A2967 RMK AO2
                 =
2018-10-20 11:35 METAR KFMH 201535Z AUTO 23018G23KT 10SM FEW017 BKN075 OVC095 16/13 A2968 RMK AO2
                 =
2018-10-20 11:15 METAR KFMH 201515Z AUTO 24017G26KT 10SM FEW018 SCT026 BKN031 16/12 A2968 RMK AO2
                 =
2018-10-20 10:55 METAR KFMH 201455Z AUTO 23015G22KT 10SM FEW018 SCT023 BKN029 15/13 A2969 RMK AO2
                 =
2018-10-20 10:35 METAR KFMH 201435Z AUTO 23016G23KT 10SM SCT031 BKN038 OVC050 15/12 A2971 RMK AO2
                 =
2018-10-20 10:15 METAR KFMH 201415Z AUTO 23023G35KT 6SM BR FEW018 SCT023 BKN035 14/12 A2972 RMK
                 AO2 =
2018-10-20 09:55 METAR KFMH 201355Z AUTO 24013G18KT 9SM SCT021 BKN027 OVC050 15/12 A2974 RMK AO2
                 =
2018-10-20 09:35 METAR KFMH 201335Z AUTO 23014G20KT 10SM BKN048 OVC055 15/12 A2974 RMK AO2 =
2018-10-20 09:15 METAR KFMH 201315Z AUTO 23016G23KT 10SM SCT050 OVC065 15/12 A2974 RMK AO2 =
2018-10-20 08:55 METAR KFMH 201255Z AUTO 23016G25KT 10SM OVC070 15/11 A2974 RMK AO2 =
2018-10-20 08:35 METAR KFMH 201235Z AUTO 24017G26KT 10SM OVC070 14/10 A2973 RMK AO2 =
2018-10-20 08:15 METAR KFMH 201215Z AUTO 23017G25KT 10SM FEW060 OVC070 14/10 A2974 RMK AO2 =
2018-10-20 07:55 METAR KFMH 201155Z AUTO 23017KT 10SM FEW020 SCT042 BKN055 14/12 A2974 RMK AO2 =
2018-10-20 07:35 METAR KFMH 201135Z AUTO 24012G18KT 10SM FEW017 SCT022 BKN027 14/12 A2975 RMK AO2
                 =
2018-10-20 07:15 METAR KFMH 201115Z AUTO 24016KT 7SM -DZ FEW022 OVC029 14/13 A2974 RMK AO2 =

Support USWX by starting your Amazon purchase here.